Terminal Aerodrome Forecast
Issued by NWS Milwaukee/Sullivan, WI

Home | Current Version | Previous Version | Text Only | Print | Product List | Glossary On
Versions: 1 2 3 4 5 6 7 8 9 10 11 12 13 14 15 16 17 18 19 20 21 22 23 24 25 26 27 28 29 30 31 32 33 34 35 36 37 38 39 40 41 42 43 44
000
FTUS43 KMKX 231741
TAFMKE
TAF
KMKE 231741Z 2318/2424 22009KT P6SM OVC200
     FM232000 18010KT 5SM -SHRA BR OVC035
     FM240100 21006KT P6SM VCSH OVC035
     FM240400 28004KT 3SM BR OVC005
     FM241500 25004KT P6SM SCT005
     FM242000 19006KT P6SM SCT025=

USA.gov is the U.S. government's official web portal to all federal, state and local government web resources and services.